createdAt,value
2019-05-28T00:01:57.187Z,14.00
2019-05-28T00:04:26.667Z,14.00
2019-05-28T00:06:56.128Z,14.00
2019-05-28T00:09:26.537Z,14.00
2019-05-28T00:11:56.050Z,14.00
2019-05-28T00:14:25.511Z,13.90
2019-05-28T00:16:54.967Z,13.90
2019-05-28T00:19:24.510Z,13.90
2019-05-28T00:21:54.807Z,14.00
2019-05-28T00:24:24.272Z,13.90
2019-05-28T00:26:53.848Z,14.00
2019-05-28T00:29:23.308Z,14.00
2019-05-28T00:31:52.851Z,14.00
2019-05-28T00:34:22.433Z,14.00
2019-05-28T00:36:51.833Z,14.00
2019-05-28T00:39:21.421Z,14.00
2019-05-28T00:41:50.893Z,14.00
2019-05-28T00:44:20.427Z,14.00
2019-05-28T00:46:49.943Z,14.00
2019-05-28T00:49:19.370Z,14.00
2019-05-28T00:51:48.868Z,13.90
2019-05-28T00:54:18.523Z,13.90
2019-05-28T00:56:49.814Z,13.90
2019-05-28T00:59:20.969Z,13.90
2019-05-28T01:01:50.235Z,13.90
2019-05-28T01:04:19.721Z,13.90
2019-05-28T01:06:50.912Z,13.80
2019-05-28T01:09:20.470Z,13.80
2019-05-28T01:11:49.835Z,13.80
2019-05-28T01:14:19.456Z,13.70
2019-05-28T01:16:48.901Z,13.70
2019-05-28T01:19:19.302Z,13.70
2019-05-28T01:21:48.740Z,13.70
2019-05-28T01:24:18.190Z,13.70
2019-05-28T01:26:47.780Z,13.70
2019-05-28T01:29:17.292Z,13.70
2019-05-28T01:31:46.706Z,13.70
2019-05-28T01:34:16.700Z,13.70
2019-05-28T01:36:46.135Z,13.70
2019-05-28T01:39:15.637Z,13.70
2019-05-28T01:41:45.247Z,13.70
2019-05-28T01:44:14.654Z,13.70
2019-05-28T01:46:44.175Z,13.70
2019-05-28T01:49:13.748Z,13.60
2019-05-28T01:51:43.179Z,13.60
2019-05-28T01:54:12.676Z,13.50
2019-05-28T01:56:42.270Z,13.50
2019-05-28T01:59:11.697Z,13.50
2019-05-28T02:01:41.242Z,13.50
2019-05-28T02:04:10.878Z,13.50
2019-05-28T02:06:40.207Z,13.50
2019-05-28T02:09:09.757Z,13.50
2019-05-28T02:11:39.330Z,13.50
2019-05-28T02:14:08.726Z,13.50
2019-05-28T02:16:38.241Z,13.50
2019-05-28T02:19:07.883Z,13.50
2019-05-28T02:21:37.124Z,13.40
2019-05-28T02:24:06.385Z,13.40
2019-05-28T02:26:35.927Z,13.40
2019-05-28T02:29:05.761Z,13.40
2019-05-28T02:31:35.303Z,13.40
2019-05-28T02:34:04.861Z,13.40
2019-05-28T02:36:34.343Z,13.40
2019-05-28T02:39:06.281Z,13.40
2019-05-28T02:41:35.767Z,13.40
2019-05-28T02:44:05.519Z,13.30
2019-05-28T02:46:34.812Z,13.40
2019-05-28T02:49:04.545Z,13.30
2019-05-28T02:51:33.947Z,13.40
2019-05-28T02:54:03.504Z,13.30
2019-05-28T02:56:32.942Z,13.30
2019-05-28T02:59:03.031Z,13.30
2019-05-28T03:01:43.518Z,13.30
2019-05-28T03:04:06.393Z,13.30
2019-05-28T03:06:39.022Z,13.30
2019-05-28T03:09:08.531Z,13.30
2019-05-28T03:11:38.101Z,13.30
2019-05-28T03:14:07.544Z,13.30
2019-05-28T03:16:40.420Z,13.30
2019-05-28T03:19:11.095Z,13.30
2019-05-28T03:21:41.337Z,13.30
2019-05-28T03:24:12.327Z,13.30
2019-05-28T03:26:42.909Z,13.40
2019-05-28T03:29:12.356Z,13.40
2019-05-28T03:31:41.884Z,13.40
2019-05-28T03:34:11.467Z,13.40
2019-05-28T03:36:41.973Z,13.30
2019-05-28T03:39:12.633Z,13.30
2019-05-28T03:41:42.011Z,13.30
2019-05-28T03:44:11.451Z,13.20
2019-05-28T03:46:40.973Z,13.20
2019-05-28T03:49:10.540Z,13.20
2019-05-28T03:51:40.022Z,13.20
2019-05-28T03:54:09.580Z,13.10
2019-05-28T03:56:39.043Z,13.10
2019-05-28T03:59:08.479Z,13.10
2019-05-28T04:01:38.013Z,13.10
2019-05-28T04:04:07.701Z,13.10
2019-05-28T04:06:37.033Z,13.10
2019-05-28T04:09:08.694Z,13.10
2019-05-28T04:11:44.855Z,13.00
2019-05-28T04:14:09.301Z,12.90
2019-05-28T04:16:38.743Z,12.70
2019-05-28T04:19:08.277Z,12.40
2019-05-28T04:21:37.729Z,12.20
2019-05-28T04:24:07.527Z,12.10
2019-05-28T04:26:37.432Z,12.00
2019-05-28T04:29:06.714Z,11.80
2019-05-28T04:31:36.201Z,11.70
2019-05-28T04:34:05.732Z,11.50
2019-05-28T04:36:35.217Z,11.40
2019-05-28T04:39:06.964Z,11.40
2019-05-28T04:41:36.298Z,11.50
2019-05-28T04:44:06.692Z,11.60
2019-05-28T04:46:38.123Z,11.60
2019-05-28T04:49:12.613Z,11.70
2019-05-28T04:51:47.807Z,11.80
2019-05-28T04:54:19.399Z,11.90
2019-05-28T04:56:48.856Z,11.90
2019-05-28T04:59:18.437Z,11.90
2019-05-28T05:01:47.965Z,12.00
2019-05-28T05:04:21.493Z,12.00
2019-05-28T05:06:51.027Z,12.00
2019-05-28T05:09:22.559Z,12.00
2019-05-28T05:11:52.540Z,12.00
2019-05-28T05:14:22.370Z,12.00
2019-05-28T05:16:51.859Z,12.10
2019-05-28T05:19:21.378Z,12.10
2019-05-28T05:21:50.949Z,12.10
2019-05-28T05:24:23.349Z,12.10
2019-05-28T05:26:53.151Z,12.10
2019-05-28T05:29:22.742Z,12.10
2019-05-28T05:31:52.186Z,12.10
2019-05-28T05:34:24.662Z,12.10
2019-05-28T05:36:54.201Z,12.10
2019-05-28T05:39:23.639Z,12.20
2019-05-28T05:41:53.084Z,12.30
2019-05-28T05:44:22.658Z,12.40
2019-05-28T05:46:52.088Z,12.50
2019-05-28T05:49:21.581Z,12.60
2019-05-28T05:51:51.299Z,12.80
2019-05-28T05:54:20.742Z,12.90
2019-05-28T05:56:50.096Z,13.00
2019-05-28T05:59:19.691Z,13.10
2019-05-28T06:01:49.116Z,13.10
2019-05-28T06:04:18.609Z,13.20
2019-05-28T06:06:48.201Z,13.20
2019-05-28T06:09:19.765Z,13.20
2019-05-28T06:11:49.307Z,13.30
2019-05-28T06:14:18.825Z,13.30
2019-05-28T06:16:48.304Z,13.40
2019-05-28T06:19:17.732Z,13.40
2019-05-28T06:21:47.367Z,13.50
2019-05-28T06:24:16.760Z,13.60
2019-05-28T06:26:48.291Z,13.60
2019-05-28T06:29:19.104Z,13.50
2019-05-28T06:31:50.031Z,13.30
2019-05-28T06:34:19.936Z,13.40
2019-05-28T06:36:49.308Z,13.30
2019-05-28T06:39:18.725Z,13.20
2019-05-28T06:41:48.233Z,13.20
2019-05-28T06:44:17.748Z,13.30
2019-05-28T06:46:47.214Z,13.40
2019-05-28T06:49:16.711Z,13.40
2019-05-28T06:51:46.721Z,13.40
2019-05-28T06:54:16.211Z,13.40
2019-05-28T06:56:46.498Z,13.50
2019-05-28T06:59:16.179Z,13.80
2019-05-28T07:01:46.708Z,14.00
2019-05-28T07:04:31.790Z,14.30
2019-05-28T07:06:47.451Z,14.60
2019-05-28T07:09:16.988Z,14.60
2019-05-28T07:11:46.751Z,14.50
2019-05-28T07:14:16.329Z,14.40
2019-05-28T07:16:53.110Z,14.40
2019-05-28T07:19:24.653Z,14.70
2019-05-28T07:21:50.301Z,15.10
2019-05-28T07:24:19.618Z,15.10
2019-05-28T07:26:49.188Z,15.00
2019-05-28T07:29:26.355Z,15.00
2019-05-28T07:31:56.261Z,14.90
2019-05-28T07:34:30.906Z,14.80
2019-05-28T07:36:57.061Z,14.60
2019-05-28T07:39:26.565Z,14.50
2019-05-28T07:41:55.798Z,14.30
2019-05-28T07:44:25.831Z,14.20
2019-05-28T07:46:55.457Z,14.10
2019-05-28T07:49:25.051Z,14.00
2019-05-28T07:51:54.605Z,14.20
2019-05-28T07:54:24.048Z,14.20
2019-05-28T07:56:53.495Z,14.20
2019-05-28T07:59:22.988Z,14.10
2019-05-28T08:01:52.573Z,14.00
2019-05-28T08:04:22.067Z,14.10
2019-05-28T08:06:54.587Z,14.10
2019-05-28T08:09:22.682Z,14.20
2019-05-28T08:11:52.229Z,14.20
2019-05-28T08:14:22.458Z,14.40
2019-05-28T08:16:54.144Z,14.50
2019-05-28T08:19:23.511Z,14.60
2019-05-28T08:21:53.015Z,14.50
2019-05-28T08:24:23.095Z,14.20
2019-05-28T08:26:52.470Z,14.00
2019-05-28T08:29:21.953Z,14.00
2019-05-28T08:31:52.416Z,13.90
2019-05-28T08:34:21.789Z,13.90
2019-05-28T08:37:05.149Z,13.80
2019-05-28T08:39:26.257Z,13.80
2019-05-28T08:41:55.701Z,13.80
2019-05-28T08:44:31.972Z,13.80
2019-05-28T08:47:01.168Z,13.80
2019-05-28T08:49:31.498Z,14.00
2019-05-28T08:52:01.243Z,14.00
2019-05-28T08:54:30.554Z,14.00
2019-05-28T08:57:18.976Z,14.00
2019-05-28T08:59:48.521Z,14.20
2019-05-28T09:02:28.738Z,14.40
2019-05-28T09:04:57.745Z,14.60
2019-05-28T09:07:27.215Z,14.80
2019-05-28T09:09:56.691Z,14.70
2019-05-28T09:12:26.168Z,14.80
2019-05-28T09:14:56.705Z,15.00
2019-05-28T09:17:26.457Z,15.20
2019-05-28T09:19:56.750Z,15.50
2019-05-28T09:22:28.456Z,15.70
2019-05-28T09:24:59.079Z,16.00
2019-05-28T09:27:29.165Z,16.10
2019-05-28T09:29:59.817Z,15.90
2019-05-28T09:32:29.333Z,15.60
2019-05-28T09:35:02.267Z,15.10
2019-05-28T09:37:29.829Z,14.60
2019-05-28T09:40:00.254Z,14.20
2019-05-28T09:42:29.659Z,14.00
2019-05-28T09:45:00.134Z,13.90
2019-05-28T09:47:29.572Z,13.70
2019-05-28T09:49:59.060Z,13.60
2019-05-28T09:52:28.523Z,13.40
2019-05-28T09:54:58.093Z,13.40
2019-05-28T09:57:27.553Z,13.50
2019-05-28T09:59:57.150Z,13.40
2019-05-28T10:02:26.856Z,13.50
2019-05-28T10:04:56.489Z,13.50
2019-05-28T10:07:26.032Z,13.60
2019-05-28T10:09:55.585Z,13.60
2019-05-28T10:12:25.004Z,13.70
2019-05-28T10:14:54.461Z,13.70
2019-05-28T10:17:24.036Z,13.80
2019-05-28T10:19:53.497Z,13.90
2019-05-28T10:22:23.801Z,14.00
2019-05-28T10:24:53.398Z,14.00
2019-05-28T10:27:22.863Z,14.10
2019-05-28T10:29:52.373Z,14.10
2019-05-28T10:32:21.993Z,14.10
2019-05-28T10:35:03.103Z,14.20
2019-05-28T10:37:23.320Z,14.20
2019-05-28T10:39:52.911Z,14.20
2019-05-28T10:42:23.179Z,14.20
2019-05-28T10:44:53.736Z,14.30
2019-05-28T10:47:23.149Z,14.30
2019-05-28T10:49:52.613Z,14.40
2019-05-28T10:52:22.042Z,14.40
2019-05-28T10:54:51.549Z,14.60
2019-05-28T10:57:21.834Z,14.70
2019-05-28T10:59:51.355Z,14.60
2019-05-28T11:02:20.966Z,14.70
2019-05-28T11:04:50.753Z,14.70
2019-05-28T11:07:20.314Z,14.60
2019-05-28T11:09:49.879Z,14.60
2019-05-28T11:12:19.683Z,14.70
2019-05-28T11:14:49.224Z,14.60
2019-05-28T11:17:18.732Z,14.60
2019-05-28T11:19:48.239Z,14.70
2019-05-28T11:22:17.742Z,14.70
2019-05-28T11:24:47.349Z,14.70
2019-05-28T11:27:16.814Z,14.60
2019-05-28T11:29:46.292Z,14.50
2019-05-28T11:32:15.950Z,14.50
2019-05-28T11:34:45.258Z,14.50
2019-05-28T11:37:14.774Z,14.50
2019-05-28T11:39:44.277Z,14.50
2019-05-28T11:42:15.878Z,14.50
2019-05-28T11:44:45.335Z,14.50
2019-05-28T11:47:14.920Z,14.50
2019-05-28T11:49:44.398Z,14.40
2019-05-28T11:52:14.672Z,14.20
2019-05-28T11:54:44.229Z,14.10
2019-05-28T11:57:13.702Z,14.10
2019-05-28T11:59:43.035Z,14.00
2019-05-28T12:02:13.535Z,14.10
2019-05-28T12:04:43.036Z,14.20
2019-05-28T12:07:25.341Z,14.50
2019-05-28T12:09:44.572Z,14.80
2019-05-28T12:12:14.050Z,14.90
2019-05-28T12:14:43.495Z,14.90
2019-05-28T12:17:13.050Z,15.00
2019-05-28T12:19:42.607Z,15.10
2019-05-28T12:22:12.159Z,15.20
2019-05-28T12:24:51.373Z,15.20
2019-05-28T12:27:20.944Z,15.30
2019-05-28T12:29:52.413Z,15.40
2019-05-28T12:32:22.352Z,15.60
2019-05-28T12:34:51.933Z,15.60
2019-05-28T12:37:22.204Z,15.60
2019-05-28T12:39:51.832Z,15.70
2019-05-28T12:42:22.483Z,15.70
2019-05-28T12:45:08.421Z,15.50
2019-05-28T12:47:24.713Z,15.40
2019-05-28T12:49:54.324Z,15.40
2019-05-28T12:52:23.691Z,15.50
2019-05-28T12:54:53.241Z,15.60
2019-05-28T12:57:22.743Z,15.50
2019-05-28T12:59:51.942Z,15.50
2019-05-28T13:02:21.348Z,15.40
2019-05-28T13:04:50.895Z,15.30
2019-05-28T13:07:20.341Z,15.10
2019-05-28T13:09:49.961Z,15.10
2019-05-28T13:12:19.976Z,15.00
2019-05-28T13:14:49.355Z,15.00
2019-05-28T13:17:19.581Z,15.10
2019-05-28T13:19:49.248Z,15.20
2019-05-28T14:12:14.963Z,15.80
2019-05-28T14:14:44.796Z,15.60
2019-05-28T14:17:14.309Z,15.70
2019-05-28T14:19:44.685Z,15.70
2019-05-28T14:22:32.697Z,15.90
2019-05-28T14:24:46.145Z,15.90
2019-05-28T14:27:16.524Z,15.80
2019-05-28T14:29:45.941Z,15.70
2019-05-28T14:32:16.237Z,15.80
2019-05-28T14:34:45.890Z,15.90
2019-05-28T14:37:15.317Z,16.10
2019-05-28T14:39:44.763Z,16.30
2019-05-28T14:42:17.391Z,16.40
2019-05-28T14:44:45.503Z,16.30
2019-05-28T14:47:15.009Z,16.40
2019-05-28T14:49:44.548Z,16.40
2019-05-28T14:52:14.037Z,16.40
2019-05-28T14:54:43.545Z,16.20
2019-05-28T14:57:13.015Z,16.10
2019-05-28T14:59:42.469Z,16.00
2019-05-28T15:02:12.032Z,15.90
2019-05-28T15:04:41.507Z,15.80
2019-05-28T15:07:12.255Z,15.90
2019-05-28T15:09:41.827Z,16.00
2019-05-28T15:12:11.377Z,16.10
2019-05-28T15:14:40.756Z,16.30
2019-05-28T15:17:10.322Z,16.30
2019-05-28T15:19:39.828Z,16.10
2019-05-28T15:22:10.202Z,15.90
2019-05-28T15:24:39.577Z,16.00
2019-05-28T15:27:09.250Z,16.20
2019-05-28T15:29:38.713Z,16.40
2019-05-28T15:32:09.437Z,16.40
2019-05-28T15:34:38.998Z,16.50
2019-05-28T15:37:11.623Z,16.60
2019-05-28T15:39:41.226Z,16.40
2019-05-28T15:42:19.952Z,16.40
2019-05-28T15:44:41.862Z,16.40
2019-05-28T15:47:11.383Z,16.40
2019-05-28T15:49:47.010Z,16.40
2019-05-28T15:52:16.484Z,16.30
2019-05-28T15:54:46.028Z,16.10
2019-05-28T15:57:15.528Z,16.10
2019-05-28T15:59:45.422Z,16.00
2019-05-28T16:02:14.889Z,15.90
2019-05-28T16:04:44.471Z,15.90
2019-05-28T16:07:13.970Z,16.00
2019-05-28T16:09:55.703Z,16.00
2019-05-28T16:12:14.600Z,16.00
2019-05-28T16:14:44.072Z,16.00
2019-05-28T16:17:14.462Z,16.10
2019-05-28T16:19:43.960Z,16.10
2019-05-28T16:22:13.527Z,16.10
2019-05-28T16:24:42.917Z,16.10
2019-05-28T16:27:12.461Z,16.00
2019-05-28T16:29:42.100Z,15.80
2019-05-28T16:32:11.505Z,15.50
2019-05-28T16:34:41.016Z,15.10
2019-05-28T16:37:10.562Z,14.90
2019-05-28T16:39:39.991Z,14.70
2019-05-28T16:42:09.793Z,14.50
2019-05-28T16:44:40.226Z,14.60
2019-05-28T16:47:16.760Z,14.70
2019-05-28T16:49:43.747Z,14.70
2019-05-28T16:52:13.297Z,14.80
2019-05-28T16:54:49.386Z,14.80
2019-05-28T16:57:18.822Z,14.90
2019-05-28T16:59:48.393Z,15.00
2019-05-28T17:02:17.877Z,15.10
2019-05-28T17:04:47.292Z,15.10
2019-05-28T17:07:18.978Z,15.10
2019-05-28T17:09:48.422Z,15.10
2019-05-28T17:12:17.608Z,15.10
2019-05-28T17:14:47.053Z,15.00
2019-05-28T17:17:17.765Z,15.00
2019-05-28T17:19:47.187Z,15.10
2019-05-28T17:22:16.692Z,15.20
2019-05-28T17:24:46.341Z,15.30
2019-05-28T17:27:26.781Z,15.30
2019-05-28T17:30:15.453Z,15.30
2019-05-28T17:32:27.850Z,15.40
2019-05-28T17:34:58.213Z,15.30
2019-05-28T17:37:27.869Z,15.30
2019-05-28T17:39:57.183Z,15.40
2019-05-28T17:42:26.695Z,15.50
2019-05-28T17:45:02.022Z,15.40
2019-05-28T17:47:31.446Z,15.50
2019-05-28T17:50:00.945Z,15.50
2019-05-28T17:52:30.497Z,15.40
2019-05-28T17:55:00.034Z,15.30
2019-05-28T17:57:29.493Z,15.30
2019-05-28T17:59:58.999Z,15.30
2019-05-28T18:02:29.305Z,15.20
2019-05-28T18:04:58.827Z,15.10
2019-05-28T18:07:28.349Z,15.10
2019-05-28T18:09:57.794Z,15.20
2019-05-28T18:12:27.212Z,15.20
2019-05-28T18:14:56.483Z,15.20
2019-05-28T18:17:26.013Z,15.20
2019-05-28T18:19:58.339Z,15.20
2019-05-28T18:22:27.870Z,15.20
2019-05-28T18:24:57.403Z,15.20
2019-05-28T18:27:29.037Z,15.20
2019-05-28T18:29:58.450Z,15.10
2019-05-28T18:32:27.882Z,15.10
2019-05-28T18:34:57.361Z,15.00
2019-05-28T18:37:26.932Z,15.00
2019-05-28T18:39:56.683Z,14.90
2019-05-28T18:42:26.275Z,14.90
2019-05-28T18:44:57.129Z,14.90
2019-05-28T18:47:26.739Z,14.80
2019-05-28T18:50:03.512Z,14.70
2019-05-28T18:52:28.528Z,14.70
2019-05-28T18:54:58.060Z,14.60
2019-05-28T18:57:27.442Z,14.50
2019-05-28T18:59:57.084Z,14.40
2019-05-28T19:02:29.807Z,14.30
2019-05-28T19:04:59.221Z,14.30
2019-05-28T19:07:28.922Z,14.20
2019-05-28T19:09:58.275Z,14.10
2019-05-28T19:12:33.510Z,14.00
2019-05-28T19:15:04.883Z,14.00
2019-05-28T19:17:40.376Z,13.90
2019-05-28T19:20:11.426Z,13.80
2019-05-28T19:22:42.568Z,13.80
2019-05-28T19:25:12.516Z,13.70
2019-05-28T19:27:41.980Z,13.60
2019-05-28T19:30:15.535Z,13.60
2019-05-28T19:32:45.210Z,13.60
2019-05-28T19:35:15.614Z,13.50
2019-05-28T19:37:45.027Z,13.50
2019-05-28T19:40:20.204Z,13.40
2019-05-28T19:42:49.767Z,13.40
2019-05-28T19:45:21.242Z,13.30
2019-05-28T19:47:50.780Z,13.30
2019-05-28T19:50:20.249Z,13.20
2019-05-28T19:52:49.822Z,13.10
2019-05-28T19:55:19.373Z,13.10
2019-05-28T19:57:48.910Z,13.10
2019-05-28T20:00:19.221Z,13.00
2019-05-28T20:02:48.741Z,13.00
2019-05-28T20:05:18.951Z,12.90
2019-05-28T20:07:48.517Z,12.90
2019-05-28T20:10:19.925Z,12.80
2019-05-28T20:12:49.537Z,12.80
2019-05-28T20:15:22.544Z,12.80
2019-05-28T20:17:52.416Z,12.70
2019-05-28T20:20:24.213Z,12.70
2019-05-28T20:22:54.014Z,12.70
2019-05-28T20:25:24.101Z,12.60
2019-05-28T20:27:53.964Z,12.50
2019-05-28T20:30:24.416Z,12.50
2019-05-28T20:32:55.097Z,12.40
2019-05-28T20:35:24.997Z,12.40
2019-05-28T20:37:54.452Z,12.30
2019-05-28T20:40:23.949Z,12.20
2019-05-28T20:42:53.419Z,12.20
2019-05-28T20:45:22.964Z,12.10
2019-05-28T20:47:52.501Z,12.10
2019-05-28T20:50:21.979Z,12.00
2019-05-28T20:52:51.488Z,12.00
2019-05-28T20:55:21.151Z,11.90
2019-05-28T20:57:51.171Z,11.90
2019-05-28T21:00:21.696Z,11.80
2019-05-28T21:02:51.701Z,11.80
2019-05-28T21:05:21.398Z,11.70
2019-05-28T21:07:52.955Z,11.60
2019-05-28T21:10:22.121Z,11.60
2019-05-28T21:12:52.613Z,11.60
2019-05-28T21:15:24.069Z,11.50
2019-05-28T21:17:53.521Z,11.50
2019-05-28T21:20:22.936Z,11.50
2019-05-28T21:22:53.665Z,11.50
2019-05-28T21:25:23.292Z,11.50
2019-05-28T21:27:54.264Z,11.50
2019-05-28T21:30:24.613Z,11.40
2019-05-28T21:32:54.740Z,11.40
2019-05-28T21:35:24.486Z,11.40
2019-05-28T21:37:55.056Z,11.30
2019-05-28T21:40:24.732Z,11.30
2019-05-28T21:43:01.349Z,11.20
2019-05-28T21:45:25.458Z,11.20
2019-05-28T21:47:54.911Z,11.10
2019-05-28T21:50:24.416Z,11.10
2019-05-28T21:52:54.936Z,11.00
2019-05-28T21:55:24.744Z,11.00
2019-05-28T21:57:55.737Z,11.00
2019-05-28T22:00:40.814Z,11.00
2019-05-28T22:03:10.408Z,10.90
2019-05-28T22:05:39.874Z,10.90
2019-05-28T22:08:09.415Z,10.80
2019-05-28T22:10:38.878Z,10.80
2019-05-28T22:13:20.380Z,10.80
2019-05-28T22:15:42.053Z,10.80
2019-05-28T22:18:11.542Z,10.70
2019-05-28T22:20:40.994Z,10.70
2019-05-28T22:23:10.589Z,10.60
2019-05-28T22:25:40.425Z,10.60
2019-05-28T22:28:09.932Z,10.60
2019-05-28T22:30:39.481Z,10.50
2019-05-28T22:33:09.035Z,10.50
2019-05-28T22:35:38.527Z,10.40
2019-05-28T22:38:08.002Z,10.40
2019-05-28T22:40:37.489Z,10.40
2019-05-28T22:43:07.788Z,10.40
2019-05-28T22:45:43.074Z,10.40
2019-05-28T22:48:16.825Z,10.30
2019-05-28T22:50:42.271Z,10.30
2019-05-28T22:53:11.583Z,10.30
2019-05-28T22:55:41.097Z,10.30
2019-05-28T22:58:18.195Z,10.30
2019-05-28T23:00:47.574Z,10.10
2019-05-28T23:03:17.034Z,10.10
2019-05-28T23:05:46.509Z,10.00
2019-05-28T23:08:16.019Z,9.90
2019-05-28T23:10:45.467Z,9.80
2019-05-28T23:13:17.857Z,9.80
2019-05-28T23:15:47.121Z,9.70
2019-05-28T23:18:16.439Z,9.70
2019-05-28T23:20:45.955Z,9.60
2019-05-28T23:23:15.539Z,9.60
2019-05-28T23:25:44.994Z,9.50
2019-05-28T23:28:14.473Z,9.50
2019-05-28T23:30:44.051Z,9.50
2019-05-28T23:33:14.265Z,9.50
2019-05-28T23:35:43.897Z,9.50
2019-05-28T23:38:13.451Z,9.40
2019-05-28T23:40:42.827Z,9.40
2019-05-28T23:43:13.717Z,9.30
2019-05-28T23:45:43.197Z,9.30
2019-05-28T23:48:16.359Z,9.30
2019-05-28T23:50:43.754Z,9.20
2019-05-28T23:53:13.811Z,9.20
2019-05-28T23:55:44.410Z,9.20
2019-05-28T23:58:13.942Z,9.10
